Time;durP1;ratioP1;P1;durP2;ratioP2;P2;SDS_P1;SDS_P2;PMS_P1;PMS_P2;Temp;Humidity;BMP_temperature;BMP_pressure;BME280_temperature;BME280_humidity;BME280_pressure;Samples;Min_cycle;Max_cycle;Signal;HPM_P1;HPM_P2
2021/08/16 00:00:20;;;;;;;7.32;4.60;;;19.10;99.90;;;;;;2632067;39;20485;-79
2021/08/16 00:02:49;;;;;;;6.68;4.95;;;18.80;99.90;;;;;;2633956;39;20661;-79
2021/08/16 00:05:18;;;;;;;4.88;4.38;;;18.80;99.90;;;;;;2630359;54;20153;-81
2021/08/16 00:07:48;;;;;;;6.80;4.65;;;19.10;99.90;;;;;;2630604;47;20173;-79
2021/08/16 00:10:18;;;;;;;6.10;4.60;;;19.40;99.90;;;;;;2640315;39;20761;-79
2021/08/16 00:12:50;;;;;;;5.50;4.97;;;19.40;99.90;;;;;;2630955;47;20197;-80
2021/08/16 00:15:19;;;;;;;6.75;5.78;;;19.40;99.90;;;;;;2631189;47;20141;-78
2021/08/16 00:17:47;;;;;;;7.93;4.57;;;19.40;99.90;;;;;;2631412;47;20193;-79
2021/08/16 00:20:16;;;;;;;6.97;4.85;;;19.10;99.90;;;;;;2631452;54;20130;-79
2021/08/16 00:22:45;;;;;;;9.45;5.82;;;18.50;99.90;;;;;;2631301;46;20169;-78
2021/08/16 00:25:14;;;;;;;13.48;6.28;;;18.30;99.90;;;;;;2631120;47;20193;-77
2021/08/16 00:27:42;;;;;;;12.30;6.35;;;18.10;99.90;;;;;;2631402;54;20205;-78
2021/08/16 00:30:15;;;;;;;12.05;6.53;;;17.90;99.90;;;;;;2630862;47;20213;-78
2021/08/16 00:32:44;;;;;;;8.77;6.28;;;17.80;99.90;;;;;;2634296;46;20255;-77
2021/08/16 00:35:13;;;;;;;6.25;5.43;;;18.00;99.90;;;;;;2630285;54;20184;-78
2021/08/16 00:37:44;;;;;;;8.52;6.35;;;18.20;99.90;;;;;;2631291;47;20754;-78
2021/08/16 00:40:15;;;;;;;8.57;6.03;;;18.00;99.90;;;;;;2631313;47;20129;-77
2021/08/16 00:42:44;;;;;;;9.80;6.00;;;17.80;99.90;;;;;;2630325;46;20165;-78
2021/08/16 00:45:16;;;;;;;6.95;5.40;;;17.80;99.90;;;;;;2630821;54;20160;-79
2021/08/16 00:47:45;;;;;;;9.60;5.72;;;18.10;99.90;;;;;;2631299;54;20149;-78
2021/08/16 00:50:16;;;;;;;7.55;5.72;;;18.80;99.90;;;;;;2631289;54;20132;-78
2021/08/16 00:52:45;;;;;;;7.50;6.68;;;19.00;99.90;;;;;;2631282;47;20213;-78
2021/08/16 00:55:15;;;;;;;7.88;5.75;;;18.70;99.90;;;;;;2631041;54;20164;-80
2021/08/16 00:57:44;;;;;;;8.68;5.47;;;18.60;99.90;;;;;;2631239;54;20156;-79
2021/08/16 01:00:17;;;;;;;8.30;5.35;;;18.40;99.90;;;;;;2630553;47;20173;-78
2021/08/16 01:02:47;;;;;;;5.90;4.38;;;18.20;99.90;;;;;;2631177;54;20153;-79
2021/08/16 01:05:17;;;;;;;7.82;4.65;;;18.20;99.90;;;;;;2631027;54;20161;-79
2021/08/16 01:07:47;;;;;;;7.05;3.80;;;18.30;99.90;;;;;;2631186;54;20205;-80
2021/08/16 01:10:17;;;;;;;7.20;4.05;;;18.40;99.90;;;;;;2631165;47;20125;-79
2021/08/16 01:12:46;;;;;;;6.93;5.18;;;18.60;99.90;;;;;;2631253;54;20201;-79
2021/08/16 01:15:20;;;;;;;7.20;4.68;;;18.50;99.90;;;;;;2631033;46;20159;-79
2021/08/16 01:17:49;;;;;;;8.32;5.10;;;18.80;99.90;;;;;;2630851;46;20149;-80
2021/08/16 01:20:19;;;;;;;7.88;4.70;;;19.10;99.90;;;;;;2631097;54;20133;-79
2021/08/16 01:22:48;;;;;;;6.35;4.65;;;19.20;99.90;;;;;;2630867;47;20169;-79
2021/08/16 01:25:17;;;;;;;5.03;4.53;;;19.10;99.90;;;;;;2630981;54;20141;-79
2021/08/16 01:27:48;;;;;;;5.00;4.18;;;19.20;99.90;;;;;;2631089;54;20149;-79
2021/08/16 01:30:19;;;;;;;8.77;5.15;;;19.20;99.90;;;;;;2631110;54;20129;-79
2021/08/16 01:32:48;;;;;;;6.88;4.38;;;19.10;99.90;;;;;;2631196;47;20915;-80
2021/08/16 01:35:17;;;;;;;5.97;4.00;;;19.00;99.90;;;;;;2630233;54;20173;-79
2021/08/16 01:37:47;;;;;;;6.35;4.38;;;19.00;99.90;;;;;;2631165;54;20133;-80
2021/08/16 01:40:17;;;;;;;6.50;4.20;;;19.00;99.90;;;;;;2630930;47;20137;-80
2021/08/16 01:42:48;;;;;;;4.38;3.80;;;19.10;99.90;;;;;;2631040;54;20145;-79
2021/08/16 01:45:17;;;;;;;7.68;4.60;;;19.10;99.90;;;;;;2630989;47;20184;-80
2021/08/16 01:47:46;;;;;;;7.03;4.00;;;19.10;99.90;;;;;;2631048;54;20133;-80
2021/08/16 01:50:15;;;;;;;5.78;4.55;;;18.90;99.90;;;;;;2630503;47;20157;-80
2021/08/16 01:52:44;;;;;;;5.00;4.22;;;18.80;99.90;;;;;;2631009;54;20967;-80
2021/08/16 01:55:15;;;;;;;5.95;4.00;;;18.70;99.90;;;;;;2630961;54;20930;-79
2021/08/16 01:57:47;;;;;;;6.00;4.82;;;18.50;99.90;;;;;;2631072;47;20150;-79
2021/08/16 02:00:16;;;;;;;8.07;4.75;;;18.40;99.90;;;;;;2631067;47;20180;-80
2021/08/16 02:02:45;;;;;;;5.18;4.47;;;18.40;99.90;;;;;;2630962;47;20159;-80
2021/08/16 02:05:14;;;;;;;4.97;4.50;;;18.50;99.90;;;;;;2630902;54;20150;-79
2021/08/16 02:07:43;;;;;;;5.40;4.53;;;18.60;99.90;;;;;;2630367;54;20149;-79
2021/08/16 02:10:13;;;;;;;6.55;4.93;;;18.50;99.90;;;;;;2631015;47;20130;-79
2021/08/16 02:12:42;;;;;;;5.20;4.45;;;18.40;99.90;;;;;;2631027;46;20215;-79
2021/08/16 02:15:15;;;;;;;7.30;5.78;;;18.30;99.90;;;;;;2630721;47;20256;-80
2021/08/16 02:17:44;;;;;;;6.18;4.78;;;18.30;99.90;;;;;;2631057;47;20137;-79
2021/08/16 02:20:13;;;;;;;6.07;4.90;;;18.30;99.90;;;;;;2630984;47;20181;-79
2021/08/16 02:22:42;;;;;;;7.78;5.38;;;18.20;99.90;;;;;;2630700;54;20171;-80
2021/08/16 02:25:12;;;;;;;8.77;4.97;;;18.10;99.90;;;;;;2630742;54;20156;-80
2021/08/16 02:27:46;;;;;;;5.97;5.10;;;18.10;99.90;;;;;;2630933;47;20130;-80
2021/08/16 02:30:19;;;;;;;11.43;6.10;;;18.00;99.90;;;;;;2629399;54;20163;-81
2021/08/16 02:32:48;;;;;;;6.68;4.47;;;18.10;99.90;;;;;;2630303;54;20177;-80
2021/08/16 02:35:17;;;;;;;5.32;4.82;;;18.10;99.90;;;;;;2630814;47;20129;-80
2021/08/16 02:37:46;;;;;;;7.03;5.13;;;18.10;99.90;;;;;;2630969;54;20920;-79
2021/08/16 02:40:15;;;;;;;6.43;5.43;;;18.20;99.90;;;;;;2638107;31;20755;-77
2021/08/16 02:42:44;;;;;;;9.10;6.03;;;18.30;99.90;;;;;;2630923;47;20149;-79
2021/08/16 02:45:13;;;;;;;6.18;5.03;;;18.20;99.90;;;;;;2630855;47;20145;-79
2021/08/16 02:47:45;;;;;;;13.27;5.82;;;18.30;99.90;;;;;;2630603;47;20141;-77
2021/08/16 02:50:15;;;;;;;8.55;6.55;;;18.30;99.90;;;;;;2630581;47;20172;-79
2021/08/16 02:52:44;;;;;;;7.82;5.57;;;18.30;99.90;;;;;;2630827;54;20991;-80
2021/08/16 02:55:13;;;;;;;14.32;6.25;;;18.20;99.90;;;;;;2631033;47;20136;-80
2021/08/16 02:57:42;;;;;;;11.05;7.00;;;18.20;99.90;;;;;;2630933;47;20160;-80
2021/08/16 03:00:13;;;;;;;11.45;6.47;;;18.10;99.90;;;;;;2630911;47;20130;-80
2021/08/16 03:02:45;;;;;;;7.78;6.07;;;18.00;99.90;;;;;;2630968;47;20224;-80
2021/08/16 03:05:14;;;;;;;12.75;7.20;;;17.90;99.90;;;;;;2630295;54;20166;-79
2021/08/16 03:07:43;;;;;;;10.40;6.95;;;17.80;99.90;;;;;;2630941;47;20145;-80
2021/08/16 03:10:14;;;;;;;7.75;6.28;;;17.80;99.90;;;;;;2630893;47;20952;-81
2021/08/16 03:12:43;;;;;;;7.45;6.53;;;17.80;99.90;;;;;;2630901;47;20161;-81
2021/08/16 03:15:15;;;;;;;9.40;7.15;;;17.70;99.90;;;;;;2630910;47;20193;-80
2021/08/16 03:17:47;;;;;;;7.35;5.60;;;17.70;99.90;;;;;;2630218;54;20244;-80
2021/08/16 03:20:16;;;;;;;10.05;7.25;;;17.70;99.90;;;;;;2636608;31;20762;-80
2021/08/16 03:22:45;;;;;;;9.15;6.88;;;17.60;99.90;;;;;;2630758;54;20180;-80
2021/08/16 03:25:15;;;;;;;6.68;5.25;;;17.50;99.90;;;;;;2630647;47;20140;-80
2021/08/16 03:27:43;;;;;;;6.32;5.32;;;17.60;99.90;;;;;;2630782;47;20178;-79
2021/08/16 03:30:15;;;;;;;8.13;5.43;;;17.60;99.90;;;;;;2630825;47;20126;-80
2021/08/16 03:32:46;;;;;;;6.82;6.13;;;17.50;99.90;;;;;;2628254;47;21374;-80
2021/08/16 03:35:19;;;;;;;7.65;6.00;;;17.40;99.90;;;;;;2630513;54;20136;-81
2021/08/16 03:37:48;;;;;;;10.30;6.47;;;17.30;99.90;;;;;;2630387;54;20140;-83
2021/08/16 03:40:17;;;;;;;7.65;6.10;;;17.20;99.90;;;;;;2631334;47;20133;-81
2021/08/16 03:42:46;;;;;;;6.70;6.10;;;17.30;99.90;;;;;;2629915;47;20157;-81
2021/08/16 03:45:20;;;;;;;7.15;5.22;;;17.20;99.90;;;;;;2629589;47;20208;-80
2021/08/16 03:47:49;;;;;;;5.53;5.03;;;17.20;99.90;;;;;;2631824;54;20157;-80
2021/08/16 03:50:21;;;;;;;8.18;5.68;;;17.10;99.90;;;;;;2630424;46;20218;-84
2021/08/16 03:52:49;;;;;;;6.57;5.88;;;17.10;99.90;;;;;;2631816;47;20200;-80
2021/08/16 03:55:18;;;;;;;5.75;4.80;;;17.20;99.90;;;;;;2630880;47;20152;-82
2021/08/16 03:57:47;;;;;;;6.80;5.32;;;17.10;99.90;;;;;;2631932;47;20129;-80
2021/08/16 04:00:17;;;;;;;6.80;5.13;;;17.20;99.90;;;;;;2638523;39;20737;-80
2021/08/16 04:02:46;;;;;;;8.15;6.30;;;17.20;99.90;;;;;;2631688;47;20193;-79
2021/08/16 04:05:18;;;;;;;5.10;4.68;;;17.10;99.90;;;;;;2630102;47;20203;-81
2021/08/16 04:07:49;;;;;;;5.57;4.97;;;17.00;99.90;;;;;;2631792;54;20134;-81
2021/08/16 04:10:19;;;;;;;5.85;4.95;;;16.90;99.90;;;;;;2631152;47;20159;-81
2021/08/16 04:12:48;;;;;;;8.68;6.18;;;17.00;99.90;;;;;;2632130;46;20145;-79
2021/08/16 04:15:21;;;;;;;6.15;5.55;;;17.10;99.90;;;;;;2631972;46;20145;-82
2021/08/16 04:17:50;;;;;;;7.07;5.75;;;17.10;99.90;;;;;;2629685;46;20199;-83
2021/08/16 04:20:21;;;;;;;6.82;5.70;;;17.20;99.90;;;;;;2631951;47;20735;-80
2021/08/16 04:22:52;;;;;;;6.55;5.45;;;17.30;99.90;;;;;;2632072;47;20145;-80
2021/08/16 04:25:21;;;;;;;7.13;6.53;;;17.30;99.90;;;;;;2631524;46;20136;-80
2021/08/16 04:27:50;;;;;;;6.35;5.70;;;17.60;99.90;;;;;;2631833;46;20146;-80
2021/08/16 04:30:19;;;;;;;6.95;6.03;;;17.70;99.90;;;;;;2631154;46;20652;-81
2021/08/16 04:32:48;;;;;;;8.82;6.03;;;17.60;99.90;;;;;;2631586;47;20172;-78
2021/08/16 04:35:17;;;;;;;6.70;6.00;;;17.50;99.90;;;;;;2630960;46;20122;-78
2021/08/16 04:37:46;;;;;;;8.02;5.60;;;17.40;99.90;;;;;;2630990;46;20134;-77
2021/08/16 04:40:17;;;;;;;6.20;5.20;;;17.30;99.90;;;;;;2630856;47;20406;-78
2021/08/16 04:42:46;;;;;;;8.55;5.97;;;17.30;99.90;;;;;;2630498;54;20172;-77
2021/08/16 04:45:15;;;;;;;10.50;6.90;;;17.30;99.90;;;;;;2630327;54;20156;-79
2021/08/16 04:47:46;;;;;;;7.22;6.07;;;17.30;99.90;;;;;;2631182;54;20139;-79
2021/08/16 04:50:16;;;;;;;7.72;7.03;;;17.40;99.90;;;;;;2631401;54;20133;-77
2021/08/16 04:52:45;;;;;;;8.88;6.50;;;17.30;99.90;;;;;;2631150;54;20164;-77
2021/08/16 04:55:17;;;;;;;12.75;7.38;;;17.20;99.90;;;;;;2630785;47;20152;-84
2021/08/16 04:57:46;;;;;;;9.70;7.70;;;17.20;99.90;;;;;;2630922;47;20215;-77
2021/08/16 05:00:16;;;;;;;13.90;8.20;;;17.30;99.90;;;;;;2630806;47;20149;-76
2021/08/16 05:02:45;;;;;;;13.85;7.28;;;17.20;99.90;;;;;;2630122;46;20192;-77
2021/08/16 05:05:14;;;;;;;9.57;6.38;;;17.00;99.90;;;;;;2630827;47;20145;-76
2021/08/16 05:07:49;;;;;;;8.57;7.82;;;17.00;99.90;;;;;;2630647;54;20137;-77
2021/08/16 05:10:21;;;;;;;10.65;7.78;;;17.10;99.90;;;;;;2632012;46;20133;-77
2021/08/16 05:12:52;;;;;;;9.35;7.28;;;17.20;99.90;;;;;;2631363;47;20149;-77
2021/08/16 05:15:21;;;;;;;8.90;7.10;;;17.10;99.90;;;;;;2631291;47;20140;-79
2021/08/16 05:17:51;;;;;;;8.90;6.78;;;17.20;99.90;;;;;;2631347;46;20133;-77
2021/08/16 05:20:21;;;;;;;8.00;6.85;;;17.40;99.90;;;;;;2630674;47;20130;-77
2021/08/16 05:22:51;;;;;;;10.23;7.70;;;17.40;99.90;;;;;;2630777;47;20201;-76
2021/08/16 05:25:22;;;;;;;12.05;7.43;;;17.40;99.90;;;;;;2631109;46;20141;-76
2021/08/16 05:27:51;;;;;;;12.55;8.57;;;17.30;99.90;;;;;;2630912;47;20733;-78
2021/08/16 05:30:20;;;;;;;13.60;8.40;;;17.20;99.90;;;;;;2630768;54;20153;-79
2021/08/16 05:32:49;;;;;;;11.77;9.77;;;17.10;99.90;;;;;;2630769;47;20167;-76
2021/08/16 05:35:18;;;;;;;10.50;8.52;;;17.30;99.90;;;;;;2630389;54;20149;-76
2021/08/16 05:37:47;;;;;;;14.68;9.98;;;17.30;99.90;;;;;;2630326;46;20163;-74
2021/08/16 05:40:16;;;;;;;11.80;10.60;;;17.40;99.90;;;;;;2630207;54;20145;-76
2021/08/16 05:42:47;;;;;;;17.45;10.88;;;17.40;99.90;;;;;;2630203;54;20196;-78
2021/08/16 05:45:16;;;;;;;17.10;11.18;;;17.30;99.90;;;;;;2637043;39;20465;-76
2021/08/16 05:47:45;;;;;;;14.65;11.95;;;17.10;99.90;;;;;;2630370;47;20156;-73
2021/08/16 05:50:15;;;;;;;14.45;13.05;;;17.20;99.90;;;;;;2630741;47;20136;-76
2021/08/16 05:52:43;;;;;;;16.00;12.18;;;17.20;99.90;;;;;;2625750;54;20179;-77
2021/08/16 05:55:13;;;;;;;14.38;12.98;;;17.20;99.90;;;;;;2629703;46;20141;-78
2021/08/16 05:57:42;;;;;;;15.65;12.77;;;17.20;99.90;;;;;;2630850;39;20752;-79
2021/08/16 06:00:16;;;;;;;12.15;10.95;;;17.20;99.90;;;;;;2629972;46;20148;-78
2021/08/16 06:02:45;;;;;;;15.88;11.05;;;17.30;99.90;;;;;;2629326;46;20174;-78
2021/08/16 06:05:15;;;;;;;13.60;10.60;;;17.30;99.90;;;;;;2629434;47;20727;-80
2021/08/16 06:07:44;;;;;;;12.93;11.45;;;17.40;99.90;;;;;;2629040;47;20161;-79
2021/08/16 06:10:13;;;;;;;17.10;12.50;;;17.50;99.90;;;;;;2628196;47;20138;-42
2021/08/16 06:12:42;;;;;;;13.55;12.25;;;17.60;99.90;;;;;;2616510;54;20706;-42
2021/08/16 06:15:15;;;;;;;15.63;12.40;;;17.70;99.90;;;;;;2616657;54;20152;-42
2021/08/16 06:17:43;;;;;;;13.48;11.82;;;17.80;99.90;;;;;;2616880;54;20262;-42
2021/08/16 06:20:14;;;;;;;13.95;12.52;;;17.90;99.90;;;;;;2616486;54;20134;-42
2021/08/16 06:22:42;;;;;;;13.52;12.20;;;18.00;99.90;;;;;;2616495;54;20176;-44
2021/08/16 06:25:12;;;;;;;15.18;11.20;;;18.00;99.90;;;;;;2615962;54;20161;-42
2021/08/16 06:27:41;;;;;;;14.88;10.50;;;18.00;99.90;;;;;;2617140;39;20811;-42
2021/08/16 06:30:14;;;;;;;11.50;9.68;;;18.10;99.90;;;;;;2616013;54;20697;-43
2021/08/16 06:32:43;;;;;;;13.93;9.00;;;18.20;99.90;;;;;;2616257;54;20730;-43
2021/08/16 06:35:14;;;;;;;10.48;9.32;;;18.40;99.90;;;;;;2615313;54;20789;-42
2021/08/16 06:37:44;;;;;;;8.77;7.90;;;18.40;99.90;;;;;;2615407;54;20145;-43
2021/08/16 06:40:14;;;;;;;10.93;7.85;;;18.40;99.90;;;;;;2615420;54;20149;-42
2021/08/16 06:42:43;;;;;;;12.23;7.90;;;18.50;99.90;;;;;;2616330;47;20183;-43
2021/08/16 06:45:15;;;;;;;12.68;8.95;;;18.50;99.90;;;;;;2616086;54;20161;-42
2021/08/16 06:47:44;;;;;;;9.90;7.82;;;18.50;99.90;;;;;;2616770;54;20160;-43
2021/08/16 06:50:13;;;;;;;8.25;7.45;;;18.40;99.90;;;;;;2616743;54;20142;-43
2021/08/16 06:52:42;;;;;;;13.32;9.02;;;18.40;99.90;;;;;;2616428;54;20176;-42
2021/08/16 06:55:11;;;;;;;11.43;9.48;;;18.30;99.90;;;;;;2616784;54;20138;-41
2021/08/16 06:57:40;;;;;;;10.95;9.50;;;18.30;99.90;;;;;;2616987;54;20148;-41
2021/08/16 07:00:10;;;;;;;17.23;10.25;;;18.00;99.90;;;;;;2617793;54;20157;-42
2021/08/16 07:02:41;;;;;;;16.98;10.20;;;18.00;99.90;;;;;;2620582;54;20679;-41
2021/08/16 07:05:12;;;;;;;14.77;9.52;;;18.10;99.90;;;;;;2621429;54;20138;-43
2021/08/16 07:07:41;;;;;;;16.42;10.95;;;18.30;99.90;;;;;;2621105;54;20133;-42
2021/08/16 07:10:12;;;;;;;14.30;10.63;;;18.10;99.90;;;;;;2620830;54;20153;-42
2021/08/16 07:12:40;;;;;;;16.60;10.30;;;18.20;99.90;;;;;;2620381;54;20173;-42
2021/08/16 07:15:10;;;;;;;13.57;10.07;;;18.30;99.90;;;;;;2619537;54;20137;-42
2021/08/16 07:17:41;;;;;;;13.65;10.55;;;18.50;99.90;;;;;;2616514;54;20168;-43
2021/08/16 07:20:11;;;;;;;13.90;9.90;;;18.70;99.90;;;;;;2617200;54;20156;-43
2021/08/16 07:22:40;;;;;;;10.77;9.60;;;18.80;99.90;;;;;;2616530;54;20288;-42
2021/08/16 07:25:10;;;;;;;13.32;10.65;;;18.70;99.90;;;;;;2616890;54;20152;-42
2021/08/16 07:27:39;;;;;;;16.98;11.95;;;18.50;99.90;;;;;;2616836;54;20141;-42
2021/08/16 07:30:09;;;;;;;17.83;10.85;;;18.40;99.90;;;;;;2617589;39;20567;-42
2021/08/16 07:32:40;;;;;;;15.13;10.80;;;18.30;99.90;;;;;;2616821;54;20212;-42
2021/08/16 07:35:10;;;;;;;19.13;10.05;;;18.20;99.90;;;;;;2616807;54;20152;-42
2021/08/16 07:37:39;;;;;;;12.93;9.80;;;18.30;99.90;;;;;;2617058;54;20138;-42
2021/08/16 07:40:09;;;;;;;12.05;8.68;;;18.50;99.90;;;;;;2617086;54;20152;-43
2021/08/16 07:42:40;;;;;;;13.88;8.73;;;18.30;99.90;;;;;;2617073;54;20177;-42
2021/08/16 07:45:10;;;;;;;12.85;8.95;;;18.40;99.90;;;;;;2617257;54;20157;-43
2021/08/16 07:47:42;;;;;;;14.88;9.23;;;18.50;99.90;;;;;;2617358;54;20157;-43
2021/08/16 07:50:12;;;;;;;16.52;8.60;;;18.90;99.90;;;;;;2617368;54;20145;-44
2021/08/16 07:52:42;;;;;;;12.43;9.02;;;18.80;99.90;;;;;;2617129;54;20236;-45
2021/08/16 07:55:11;;;;;;;11.18;7.45;;;18.90;99.90;;;;;;2616985;54;20148;-44
2021/08/16 07:57:40;;;;;;;11.02;7.40;;;;;;;;;;2617166;54;20678;-43
2021/08/16 08:00:11;;;;;;;15.93;9.43;;;19.00;99.90;;;;;;2617705;39;20542;-43
2021/08/16 08:02:47;;;;;;;14.13;8.55;;;18.80;99.90;;;;;;2616943;54;20164;-40
2021/08/16 08:05:17;;;;;;;12.05;9.02;;;19.00;99.90;;;;;;2617026;54;20142;-44
2021/08/16 08:07:46;;;;;;;15.63;10.23;;;19.20;99.90;;;;;;2616938;54;20179;-44
2021/08/16 08:10:16;;;;;;;14.45;10.50;;;19.40;99.90;;;;;;2617180;54;20156;-43
2021/08/16 08:12:46;;;;;;;14.93;9.43;;;19.50;99.90;;;;;;2616907;54;20161;-43
2021/08/16 08:15:15;;;;;;;12.80;11.50;;;;;;;;;;2616568;39;20562;-43
2021/08/16 08:17:47;;;;;;;17.45;11.10;;;19.30;99.90;;;;;;2616998;54;20142;-44
2021/08/16 08:20:16;;;;;;;12.38;9.73;;;19.40;99.90;;;;;;2617776;39;20828;-43
2021/08/16 08:22:45;;;;;;;16.05;10.55;;;19.60;99.90;;;;;;2617269;39;20582;-44
2021/08/16 08:25:14;;;;;;;15.65;9.93;;;19.70;99.90;;;;;;2616873;54;20141;-43
2021/08/16 08:27:43;;;;;;;13.68;11.00;;;19.60;99.90;;;;;;2617125;54;20145;-42
2021/08/16 08:30:13;;;;;;;15.20;9.93;;;;;;;;;;2617104;39;20581;-41
2021/08/16 08:32:49;;;;;;;13.75;8.52;;;19.50;99.90;;;;;;2616728;54;20184;-42
2021/08/16 08:35:19;;;;;;;11.40;9.27;;;;;;;;;;2617010;54;20141;-42
2021/08/16 08:37:47;;;;;;;10.98;9.88;;;19.50;99.90;;;;;;2616773;54;20143;-42
2021/08/16 08:40:17;;;;;;;12.82;9.52;;;;;;;;;;2616615;54;20156;-43
2021/08/16 08:42:52;;;;;;;13.18;9.18;;;19.80;99.90;;;;;;2616685;54;20180;-43
2021/08/16 08:45:23;;;;;;;15.07;9.85;;;20.10;99.90;;;;;;2616665;54;20153;-44
2021/08/16 08:47:55;;;;;;;15.15;10.45;;;;;;;;;;2616933;54;20138;-41
2021/08/16 08:50:25;;;;;;;15.45;10.90;;;;;;;;;;2617002;54;20130;-43
2021/08/16 08:52:56;;;;;;;11.90;9.23;;;;;;;;;;2617003;54;20161;-42
2021/08/16 08:55:25;;;;;;;13.65;10.35;;;;;;;;;;2617077;54;20152;-41
2021/08/16 08:57:54;;;;;;;13.50;10.43;;;19.90;99.90;;;;;;2617034;54;20138;-40
2021/08/16 09:00:23;;;;;;;14.55;10.82;;;20.00;99.90;;;;;;2617062;54;20146;-43
2021/08/16 09:03:02;;;;;;;12.07;10.07;;;20.30;99.90;;;;;;2616763;54;20172;-43
2021/08/16 09:05:32;;;;;;;15.80;11.50;;;20.20;99.90;;;;;;2616713;47;20698;-45
2021/08/16 09:08:01;;;;;;;12.05;10.73;;;20.20;99.90;;;;;;2617041;51;20142;-44
2021/08/16 09:10:30;;;;;;;17.10;10.50;;;20.10;99.90;;;;;;2617115;39;20555;-44
2021/08/16 09:13:01;;;;;;;16.95;9.55;;;20.30;99.90;;;;;;2616720;54;20188;-43
2021/08/16 09:15:31;;;;;;;9.95;8.38;;;20.10;99.90;;;;;;2617108;39;20577;-44
2021/08/16 09:18:06;;;;;;;13.45;9.70;;;19.90;99.90;;;;;;2617255;39;20542;-45
2021/08/16 09:20:36;;;;;;;16.17;10.43;;;19.90;99.90;;;;;;2616764;54;20152;-44
2021/08/16 09:23:09;;;;;;;10.30;9.23;;;19.70;99.90;;;;;;2616773;51;20321;-43
2021/08/16 09:25:42;;;;;;;16.13;10.48;;;19.70;99.90;;;;;;2616698;54;20153;-44
2021/08/16 09:28:11;;;;;;;10.57;8.95;;;19.70;99.90;;;;;;2616694;54;20236;-44
2021/08/16 09:30:41;;;;;;;11.98;8.32;;;19.60;99.90;;;;;;2616519;54;20149;-45
2021/08/16 09:33:19;;;;;;;13.40;8.60;;;19.60;99.90;;;;;;2615699;47;20157;-45
2021/08/16 09:35:56;;;;;;;12.00;8.85;;;19.50;99.90;;;;;;2616555;54;20141;-45
2021/08/16 09:38:41;;;;;;;16.45;9.82;;;19.40;99.90;;;;;;2616958;54;20225;-45
2021/08/16 09:41:22;;;;;;;14.70;8.63;;;19.50;99.90;;;;;;2617079;39;20599;-44
2021/08/16 09:43:51;;;;;;;10.75;8.68;;;19.60;99.90;;;;;;2616736;54;20169;-45
2021/08/16 09:46:21;;;;;;;12.63;8.48;;;19.70;99.90;;;;;;2616590;54;20648;-44
2021/08/16 09:49:04;;;;;;;15.18;8.63;;;19.50;99.90;;;;;;2616818;54;20141;-45
2021/08/16 09:51:35;;;;;;;14.50;8.73;;;19.60;99.90;;;;;;2616534;54;20168;-44
2021/08/16 09:54:05;;;;;;;10.25;8.60;;;19.70;99.90;;;;;;2615254;54;20679;-45
2021/08/16 09:56:34;;;;;;;7.95;6.90;;;19.50;99.90;;;;;;2616198;54;20146;-45
2021/08/16 09:59:03;;;;;;;10.70;8.07;;;19.60;99.90;;;;;;2616763;54;20145;-44
2021/08/16 10:01:35;;;;;;;10.88;7.85;;;19.50;99.90;;;;;;2616550;54;20216;-44
2021/08/16 10:04:08;;;;;;;14.02;7.32;;;19.40;99.90;;;;;;2617231;47;20652;-44
2021/08/16 10:06:37;;;;;;;12.93;7.82;;;19.50;99.90;;;;;;2617612;54;20670;-44
2021/08/16 10:09:07;;;;;;;11.13;7.93;;;19.50;99.90;;;;;;2616890;54;20698;-44
2021/08/16 10:11:38;;;;;;;9.73;7.45;;;19.40;99.90;;;;;;2616307;54;20177;-43
2021/08/16 10:14:10;;;;;;;15.45;6.55;;;19.20;99.90;;;;;;2617639;39;20192;-44
2021/08/16 10:16:46;;;;;;;11.43;7.03;;;19.10;99.90;;;;;;2616629;54;20149;-44
2021/08/16 10:19:32;;;;;;;8.98;6.15;;;19.10;99.90;;;;;;2615571;54;20152;-44
2021/08/16 10:22:08;;;;;;;11.68;6.53;;;19.10;99.90;;;;;;2616909;39;20578;-43
2021/08/16 10:24:46;;;;;;;8.75;6.18;;;19.00;99.90;;;;;;2616508;54;20161;-44
2021/08/16 10:27:21;;;;;;;13.85;6.32;;;19.00;99.90;;;;;;2615976;47;20145;-44
2021/08/16 10:29:54;;;;;;;11.05;7.07;;;19.20;99.90;;;;;;2616757;54;20147;-45
2021/08/16 10:32:30;;;;;;;7.45;5.65;;;19.20;99.90;;;;;;2616007;47;20815;-44
2021/08/16 10:35:13;;;;;;;10.10;5.95;;;19.20;99.90;;;;;;2616713;39;20550;-44
2021/08/16 10:37:47;;;;;;;7.65;6.72;;;19.10;99.90;;;;;;2616286;54;20145;-43
2021/08/16 10:40:20;;;;;;;6.85;5.10;;;19.00;99.90;;;;;;2616411;54;20157;-43
2021/08/16 10:42:51;;;;;;;9.27;5.47;;;19.00;99.90;;;;;;2616265;54;20219;-43
2021/08/16 10:45:33;;;;;;;12.05;5.78;;;19.10;99.90;;;;;;2616206;54;20174;-44
2021/08/16 10:48:03;;;;;;;10.93;6.68;;;19.00;99.90;;;;;;2615923;54;20187;-43
2021/08/16 10:50:36;;;;;;;10.75;6.88;;;18.90;99.90;;;;;;2616219;54;20152;-43
2021/08/16 10:53:08;;;;;;;10.45;7.32;;;18.80;99.90;;;;;;2616443;54;20141;-44
2021/08/16 10:55:38;;;;;;;11.57;8.75;;;18.70;99.90;;;;;;2616271;54;20207;-43
2021/08/16 10:58:09;;;;;;;10.93;9.52;;;18.40;99.90;;;;;;2616753;54;20141;-42
2021/08/16 11:00:39;;;;;;;10.18;9.25;;;18.00;99.90;;;;;;2615798;54;20145;-43
2021/08/16 11:03:08;;;;;;;13.18;11.65;;;17.60;99.90;;;;;;2616215;54;20149;-44
2021/08/16 11:05:42;;;;;;;12.35;10.73;;;17.30;99.90;;;;;;2616324;54;20145;-43
2021/08/16 11:08:12;;;;;;;12.63;10.77;;;17.10;99.90;;;;;;2616541;54;20153;-43
2021/08/16 11:10:45;;;;;;;16.10;13.38;;;17.10;99.90;;;;;;2615940;54;20200;-44
2021/08/16 11:13:16;;;;;;;14.57;13.07;;;17.10;99.90;;;;;;2616626;54;20133;-43
2021/08/16 11:15:46;;;;;;;20.33;14.70;;;17.00;99.90;;;;;;2616283;54;20137;-43
2021/08/16 11:18:16;;;;;;;18.35;14.20;;;17.00;99.90;;;;;;2616511;54;20144;-43
2021/08/16 11:20:49;;;;;;;21.83;15.85;;;17.00;99.90;;;;;;2616235;54;20153;-42
2021/08/16 11:23:23;;;;;;;15.98;13.82;;;17.00;99.90;;;;;;2616736;54;20141;-44
2021/08/16 11:25:56;;;;;;;20.10;14.48;;;16.90;99.90;;;;;;2616550;54;20232;-43
2021/08/16 11:28:26;;;;;;;19.67;13.85;;;16.90;99.90;;;;;;2616406;46;20176;-44
2021/08/16 11:31:04;;;;;;;15.48;13.70;;;16.90;99.90;;;;;;2616182;54;20149;-43
2021/08/16 11:33:33;;;;;;;20.30;14.30;;;16.80;99.90;;;;;;2616444;54;20145;-44
2021/08/16 11:36:10;;;;;;;15.20;13.60;;;16.90;99.90;;;;;;2615730;54;20640;-44
2021/08/16 11:38:40;;;;;;;5.47;4.10;;;16.80;99.90;;;;;;2614959;54;20156;-44
2021/08/16 11:41:10;;;;;;;3.13;2.88;;;16.40;99.90;;;;;;2615991;54;20184;-43
2021/08/16 11:43:39;;;;;;;3.45;3.22;;;16.10;99.90;;;;;;2615948;54;20149;-44
2021/08/16 11:46:15;;;;;;;5.78;3.33;;;16.00;99.90;;;;;;2616211;54;20153;-45
2021/08/16 11:48:45;;;;;;;6.50;3.95;;;16.00;99.90;;;;;;2616096;54;20153;-44
2021/08/16 11:51:16;;;;;;;4.47;3.30;;;16.10;99.90;;;;;;2616039;54;20189;-43
2021/08/16 11:53:46;;;;;;;3.47;3.17;;;16.00;99.90;;;;;;2616424;54;20146;-45
2021/08/16 11:56:15;;;;;;;3.13;2.75;;;15.90;99.90;;;;;;2616016;54;20141;-44
2021/08/16 11:59:04;;;;;;;6.07;2.72;;;15.90;99.90;;;;;;2616746;39;20578;-43
2021/08/16 12:01:33;;;;;;;3.10;2.40;;;15.90;99.90;;;;;;2615917;54;20172;-43
2021/08/16 12:04:04;;;;;;;4.13;3.22;;;15.80;99.90;;;;;;2615991;54;20150;-46
2021/08/16 12:06:35;;;;;;;3.38;2.55;;;15.90;99.90;;;;;;2615523;50;20313;-43
2021/08/16 12:09:08;;;;;;;2.95;2.75;;;16.00;99.90;;;;;;2617066;54;20141;-43
2021/08/16 12:11:40;;;;;;;3.88;3.05;;;16.00;99.90;;;;;;2616481;54;20288;-44
2021/08/16 12:14:11;;;;;;;2.65;2.45;;;15.90;99.90;;;;;;2616941;39;20927;-43
2021/08/16 12:16:42;;;;;;;3.72;3.30;;;15.90;99.90;;;;;;2617528;39;20551;-44
2021/08/16 12:19:11;;;;;;;7.63;3.80;;;15.90;99.90;;;;;;2617084;54;20137;-43
2021/08/16 12:21:45;;;;;;;4.78;3.08;;;16.00;99.90;;;;;;2615888;54;20200;-44
2021/08/16 12:24:23;;;;;;;6.07;3.28;;;15.90;99.90;;;;;;2617032;54;20149;-44
2021/08/16 12:27:02;;;;;;;5.10;3.95;;;15.80;99.90;;;;;;2617092;54;20303;-45
2021/08/16 12:29:44;;;;;;;5.88;4.13;;;15.90;99.90;;;;;;2616620;54;20153;-44
2021/08/16 12:32:24;;;;;;;3.55;3.25;;;15.90;99.90;;;;;;2617996;39;20594;-44
2021/08/16 12:35:05;;;;;;;6.70;4.07;;;15.80;99.90;;;;;;2617704;54;20144;-44
2021/08/16 12:37:46;;;;;;;7.53;3.88;;;15.80;99.90;;;;;;2617564;54;20168;-45
2021/08/16 12:40:23;;;;;;;5.57;4.53;;;15.70;99.90;;;;;;2616818;54;20240;-45
2021/08/16 12:43:02;;;;;;;3.80;3.22;;;15.70;99.90;;;;;;2617307;54;20160;-45
2021/08/16 12:45:39;;;;;;;4.57;3.28;;;15.70;99.90;;;;;;2616894;54;20182;-44
2021/08/16 12:48:17;;;;;;;3.75;3.38;;;15.70;99.90;;;;;;2617671;39;20559;-44
2021/08/16 12:51:02;;;;;;;6.05;3.63;;;15.70;99.90;;;;;;2617044;54;20245;-44
2021/08/16 12:53:42;;;;;;;4.90;3.95;;;15.70;99.90;;;;;;2616996;54;20149;-45
2021/08/16 12:56:20;;;;;;;4.25;3.60;;;15.90;99.90;;;;;;2616954;54;20168;-45
2021/08/16 12:58:58;;;;;;;3.60;3.25;;;15.90;99.90;;;;;;2616907;54;20705;-44
2021/08/16 13:01:35;;;;;;;6.35;3.83;;;15.90;99.90;;;;;;2616707;54;20174;-45